createdAt,value
2022-12-01T00:00:24.094Z,6.31
2022-12-01T00:03:26.077Z,6.20
2022-12-01T00:06:27.514Z,6.25
2022-12-01T00:09:47.978Z,6.17
2022-12-01T00:12:49.661Z,6.35
2022-12-01T00:15:51.047Z,6.48
2022-12-01T00:18:53.489Z,6.54
2022-12-01T00:21:54.827Z,6.17
2022-12-01T00:24:56.292Z,6.08
2022-12-01T00:27:57.687Z,6.19
2022-12-01T00:31:00.069Z,6.15
2022-12-01T00:34:01.547Z,6.05
2022-12-01T00:37:02.953Z,6.23
2022-12-01T00:40:05.435Z,6.14
2022-12-01T00:43:06.802Z,6.12
2022-12-01T00:46:08.691Z,6.30
2022-12-01T00:49:13.290Z,6.09
2022-12-01T00:52:17.222Z,6.07
2022-12-01T00:55:18.789Z,6.19
2022-12-01T00:58:21.002Z,6.22
2022-12-01T01:01:22.821Z,5.98
2022-12-01T01:04:24.553Z,6.30
2022-12-01T01:07:26.052Z,6.45
2022-12-01T01:10:28.629Z,6.44
2022-12-01T01:13:30.483Z,6.26
2022-12-01T01:16:32.424Z,6.32
2022-12-01T01:19:33.839Z,6.27
2022-12-01T01:22:35.441Z,6.26
2022-12-01T01:25:36.894Z,6.18
2022-12-01T01:28:41.431Z,6.06
2022-12-01T01:31:42.841Z,5.86
2022-12-01T01:34:45.283Z,6.02
2022-12-01T01:37:46.576Z,5.50
2022-12-01T01:40:48.084Z,5.58
2022-12-01T01:43:58.165Z,5.91
2022-12-01T01:46:59.555Z,5.78
2022-12-01T01:50:06.473Z,5.70
2022-12-01T01:53:12.303Z,5.77
2022-12-01T01:56:13.750Z,5.83
2022-12-01T01:59:31.599Z,5.57
2022-12-01T02:02:40.369Z,5.56
2022-12-01T02:05:44.700Z,5.64
2022-12-01T02:08:46.091Z,5.56
2022-12-01T02:12:11.271Z,5.59
2022-12-01T02:15:25.572Z,5.47
2022-12-01T02:18:57.130Z,5.23
2022-12-01T02:22:18.288Z,5.36
2022-12-01T02:25:26.893Z,5.34
2022-12-01T02:29:00.070Z,5.50
2022-12-01T02:32:15.570Z,5.56
2022-12-01T02:35:23.101Z,5.66
2022-12-01T02:38:45.083Z,5.40
2022-12-01T02:41:52.658Z,5.41
2022-12-01T02:44:55.668Z,5.05
2022-12-01T02:48:01.913Z,5.37
2022-12-01T02:51:17.982Z,5.60
2022-12-01T02:54:21.518Z,5.73
2022-12-01T02:57:23.606Z,5.39
2022-12-01T03:00:25.087Z,5.45
2022-12-01T03:03:29.514Z,5.54
2022-12-01T03:06:55.736Z,5.51
2022-12-01T03:10:09.396Z,5.37
2022-12-01T03:13:26.598Z,5.52
2022-12-01T03:16:41.665Z,5.49
2022-12-01T03:19:56.033Z,5.36
2022-12-01T03:23:09.380Z,5.37
2022-12-01T03:26:16.636Z,5.45
2022-12-01T03:29:21.888Z,5.09
2022-12-01T03:32:49.911Z,5.27
2022-12-01T03:35:59.767Z,5.33
2022-12-01T03:39:06.981Z,5.38
2022-12-01T03:42:23.669Z,5.10
2022-12-01T03:45:40.038Z,5.18
2022-12-01T03:48:42.183Z,5.21
2022-12-01T03:51:56.179Z,5.06
2022-12-01T03:55:16.623Z,4.99
2022-12-01T03:58:28.363Z,4.54
2022-12-01T04:01:32.761Z,4.44
2022-12-01T04:04:34.356Z,4.63
2022-12-01T04:07:37.637Z,4.86
2022-12-01T04:10:39.118Z,5.00
2022-12-01T04:13:40.490Z,5.00
2022-12-01T04:16:41.867Z,5.11
2022-12-01T04:19:43.228Z,4.94
2022-12-01T04:22:45.113Z,5.12
2022-12-01T04:25:46.547Z,4.86
2022-12-01T04:28:48.638Z,4.76
2022-12-01T04:31:50.216Z,4.62
2022-12-01T04:34:51.712Z,4.64
2022-12-01T04:37:53.088Z,4.58
2022-12-01T04:40:54.458Z,4.64
2022-12-01T04:43:56.554Z,4.74
2022-12-01T04:46:58.033Z,4.68
2022-12-01T04:50:00.487Z,4.74
2022-12-01T04:53:01.815Z,4.76
2022-12-01T04:56:04.087Z,4.68
2022-12-01T04:59:05.505Z,4.98
2022-12-01T05:02:07.430Z,5.00
2022-12-01T05:05:10.214Z,4.77
2022-12-01T05:08:11.774Z,4.65
2022-12-01T05:11:14.622Z,4.63
2022-12-01T05:14:16.074Z,4.89
2022-12-01T05:17:17.519Z,5.09
2022-12-01T05:20:41.052Z,5.30
2022-12-01T05:23:42.470Z,5.34
2022-12-01T05:26:44.767Z,5.33
2022-12-01T05:29:46.434Z,5.18
2022-12-01T05:32:47.964Z,5.11
2022-12-01T05:35:49.985Z,5.19
2022-12-01T05:38:51.700Z,5.27
2022-12-01T05:41:53.859Z,5.41
2022-12-01T05:44:55.414Z,5.31
2022-12-01T05:47:58.175Z,5.27
2022-12-01T05:50:59.574Z,5.35
2022-12-01T05:54:01.311Z,5.27
2022-12-01T05:57:02.751Z,5.17
2022-12-01T06:00:06.136Z,5.30
2022-12-01T06:03:13.211Z,5.10
2022-12-01T06:06:14.669Z,4.80
2022-12-01T06:09:16.103Z,4.62
2022-12-01T06:12:18.199Z,4.94
2022-12-01T06:15:19.603Z,4.71
2022-12-01T06:18:20.980Z,4.60
2022-12-01T06:21:22.472Z,4.83
2022-12-01T06:24:24.059Z,4.71
2022-12-01T06:27:25.594Z,4.71
2022-12-01T06:30:27.051Z,4.88
2022-12-01T06:33:28.427Z,4.67
2022-12-01T06:36:29.821Z,4.88
2022-12-01T06:39:31.207Z,4.97
2022-12-01T06:42:32.800Z,5.11
2022-12-01T06:45:34.214Z,5.20
2022-12-01T06:48:35.647Z,5.17
2022-12-01T06:51:37.065Z,5.15
2022-12-01T06:54:39.552Z,5.14
2022-12-01T06:57:40.905Z,5.06
2022-12-01T07:00:46.372Z,5.23
2022-12-01T07:03:50.920Z,5.22
2022-12-01T07:06:52.350Z,5.07
2022-12-01T07:09:53.791Z,5.03
2022-12-01T07:12:58.405Z,4.91
2022-12-01T07:15:59.870Z,4.79
2022-12-01T07:19:01.316Z,5.05
2022-12-01T07:22:03.071Z,5.16
2022-12-01T07:25:05.123Z,5.15
2022-12-01T07:28:06.604Z,5.09
2022-12-01T07:31:11.000Z,4.94
2022-12-01T07:34:15.873Z,5.02
2022-12-01T07:37:17.482Z,5.01
2022-12-01T07:40:18.968Z,5.06
2022-12-01T07:43:20.423Z,5.08
2022-12-01T07:46:24.751Z,5.26
2022-12-01T07:49:26.444Z,5.27
2022-12-01T07:52:27.839Z,5.13
2022-12-01T07:55:29.226Z,5.12
2022-12-01T07:58:31.099Z,5.10
2022-12-01T08:01:32.504Z,5.21
2022-12-01T08:04:34.021Z,5.09
2022-12-01T08:07:35.447Z,5.13
2022-12-01T08:10:37.064Z,5.01
2022-12-01T08:13:39.231Z,5.15
2022-12-01T08:16:40.640Z,5.07
2022-12-01T08:19:42.043Z,5.09
2022-12-01T08:22:43.489Z,5.06
2022-12-01T08:25:44.868Z,4.89
2022-12-01T08:28:47.093Z,5.06
2022-12-01T08:31:49.035Z,4.99
2022-12-01T08:34:53.546Z,5.07
2022-12-01T08:37:55.200Z,5.15
2022-12-01T08:41:04.016Z,5.00
2022-12-01T08:44:05.462Z,5.15
2022-12-01T08:47:06.916Z,4.91
2022-12-01T08:50:08.624Z,4.95
2022-12-01T08:53:10.030Z,5.09
2022-12-01T08:56:24.289Z,5.01
2022-12-01T08:59:25.878Z,5.33
2022-12-01T09:02:27.550Z,5.45
2022-12-01T09:05:29.173Z,5.23
2022-12-01T09:08:31.071Z,4.79
2022-12-01T09:11:32.594Z,4.83
2022-12-01T09:14:38.130Z,4.94
2022-12-01T09:17:39.560Z,4.98
2022-12-01T09:20:40.986Z,4.86
2022-12-01T09:23:42.684Z,5.06
2022-12-01T09:26:44.160Z,5.21
2022-12-01T09:29:45.572Z,5.05
2022-12-01T09:32:46.945Z,4.97
2022-12-01T09:35:48.450Z,5.26
2022-12-01T09:38:49.969Z,5.42
2022-12-01T09:41:59.471Z,5.46
2022-12-01T09:45:04.279Z,4.87
2022-12-01T09:48:07.758Z,5.09
2022-12-01T09:51:14.747Z,5.32
2022-12-01T09:54:16.176Z,5.29
2022-12-01T09:57:34.779Z,5.36
2022-12-01T10:00:42.182Z,5.18
2022-12-01T10:03:52.797Z,5.27
2022-12-01T10:07:00.875Z,5.48
2022-12-01T10:10:11.788Z,5.54
2022-12-01T10:13:19.570Z,5.37
2022-12-01T10:16:29.357Z,5.34
2022-12-01T10:19:42.567Z,5.18
2022-12-01T10:23:12.985Z,5.05
2022-12-01T10:26:34.474Z,5.38
2022-12-01T10:29:46.513Z,5.31
2022-12-01T10:32:56.208Z,5.44
2022-12-01T10:35:57.919Z,5.68
2022-12-01T10:39:00.595Z,5.41
2022-12-01T10:42:15.011Z,5.35
2022-12-01T10:45:25.670Z,5.10
2022-12-01T10:48:27.182Z,5.29
2022-12-01T10:51:28.721Z,5.09
2022-12-01T10:54:36.360Z,5.49
2022-12-01T10:57:37.938Z,5.14
2022-12-01T11:04:20.993Z,5.13
2022-12-01T11:07:34.663Z,4.96
2022-12-01T11:10:37.216Z,4.58
2022-12-01T11:13:42.052Z,4.92
2022-12-01T11:16:49.970Z,5.08
2022-12-01T11:19:52.234Z,5.32
2022-12-01T11:23:30.664Z,5.41
2022-12-01T11:26:34.566Z,5.32
2022-12-01T11:29:38.128Z,5.38
2022-12-01T11:32:39.919Z,5.23
2022-12-01T11:35:47.753Z,5.47
2022-12-01T11:38:50.687Z,5.13
2022-12-01T11:41:56.679Z,5.20
2022-12-01T11:45:25.796Z,5.26
2022-12-01T11:48:29.676Z,5.16
2022-12-01T11:51:37.874Z,5.24
2022-12-01T11:54:55.383Z,5.30
2022-12-01T11:58:03.820Z,5.54
2022-12-01T12:01:22.016Z,5.46
2022-12-01T12:04:52.188Z,5.39
2022-12-01T12:08:15.642Z,5.16
2022-12-01T12:11:34.734Z,5.39
2022-12-01T12:15:01.114Z,5.68
2022-12-01T12:18:47.286Z,5.71
2022-12-01T12:22:03.911Z,5.80
2022-12-01T12:25:29.018Z,5.51
2022-12-01T12:28:46.580Z,5.19
2022-12-01T12:32:14.155Z,5.11
2022-12-01T12:35:43.876Z,5.37
2022-12-01T12:38:57.660Z,5.39
2022-12-01T12:42:05.789Z,5.26
2022-12-01T12:45:27.927Z,5.21
2022-12-01T12:49:12.121Z,5.37
2022-12-01T12:52:23.547Z,5.46
2022-12-01T12:55:37.361Z,5.43
2022-12-01T12:58:47.356Z,4.99
2022-12-01T13:02:01.244Z,5.23
2022-12-01T13:05:12.576Z,5.42
2022-12-01T13:08:20.279Z,5.08
2022-12-01T13:11:27.580Z,5.30
2022-12-01T13:14:38.092Z,5.42
2022-12-01T13:19:04.867Z,5.39
2022-12-01T13:22:08.161Z,5.43
2022-12-01T13:25:13.615Z,5.10
2022-12-01T13:28:22.635Z,5.39
2022-12-01T13:31:24.411Z,5.50
2022-12-01T13:34:47.376Z,5.23
2022-12-01T13:37:49.087Z,4.91
2022-12-01T13:41:21.265Z,5.25
2022-12-01T13:44:26.349Z,5.30
2022-12-01T13:47:38.611Z,5.23
2022-12-01T13:50:43.686Z,5.17
2022-12-01T13:54:06.193Z,5.11
2022-12-01T13:57:13.804Z,5.45
2022-12-01T14:00:21.570Z,5.12
2022-12-01T14:03:22.984Z,5.35
2022-12-01T14:06:50.685Z,5.02
2022-12-01T14:10:07.182Z,4.82
2022-12-01T14:13:19.004Z,5.18
2022-12-01T14:16:21.128Z,5.16
2022-12-01T14:19:36.708Z,5.07
2022-12-01T14:22:44.358Z,5.15
2022-12-01T14:26:15.822Z,5.10
2022-12-01T14:29:42.378Z,5.35
2022-12-01T14:32:43.828Z,5.27
2022-12-01T14:35:45.685Z,5.25
2022-12-01T14:38:49.861Z,5.40
2022-12-01T14:42:00.231Z,5.10
2022-12-01T14:45:03.691Z,4.82
2022-12-01T14:48:09.841Z,5.18
2022-12-01T14:51:20.835Z,5.22
2022-12-01T14:54:34.771Z,5.01
2022-12-01T14:57:49.523Z,4.97
2022-12-01T15:01:23.985Z,5.27
2022-12-01T15:04:26.053Z,5.36
2022-12-01T15:07:27.597Z,5.31
2022-12-01T15:10:35.307Z,5.15
2022-12-01T15:13:53.224Z,5.05
2022-12-01T15:16:54.759Z,5.15
2022-12-01T15:19:56.214Z,4.92
2022-12-01T15:22:58.560Z,5.05
2022-12-01T15:26:00.699Z,5.04
2022-12-01T15:29:28.256Z,5.23
2022-12-01T15:32:31.668Z,5.23
2022-12-01T15:35:33.599Z,5.05
2022-12-01T15:38:37.812Z,5.16
2022-12-01T15:41:43.096Z,5.25
2022-12-01T15:44:44.679Z,5.17
2022-12-01T15:47:48.941Z,5.17
2022-12-01T15:51:08.797Z,5.20
2022-12-01T15:54:23.154Z,5.15
2022-12-01T15:57:24.626Z,4.79
2022-12-01T16:00:27.304Z,4.98
2022-12-01T16:03:30.451Z,5.18
2022-12-01T16:06:34.881Z,5.24
2022-12-01T16:09:38.814Z,5.18
2022-12-01T16:12:40.220Z,5.32
2022-12-01T16:15:44.797Z,4.87
2022-12-01T16:18:57.523Z,4.97
2022-12-01T16:22:05.080Z,4.83
2022-12-01T16:25:06.872Z,4.89
2022-12-01T16:28:31.020Z,5.08
2022-12-01T16:31:32.649Z,4.86
2022-12-01T16:34:46.021Z,4.78
2022-12-01T16:37:48.090Z,5.10
2022-12-01T16:40:51.914Z,5.13
2022-12-01T16:44:20.326Z,4.97
2022-12-01T16:47:19.124Z,5.11
2022-12-01T16:50:22.377Z,5.07
2022-12-01T16:53:23.796Z,4.75
2022-12-01T16:56:25.187Z,5.01
2022-12-01T16:59:26.691Z,4.91
2022-12-01T17:02:28.194Z,4.81
2022-12-01T17:05:29.720Z,5.01
2022-12-01T17:08:31.454Z,5.18
2022-12-01T17:11:33.070Z,5.27
2022-12-01T17:14:35.912Z,5.30
2022-12-01T17:17:38.579Z,5.01
2022-12-01T17:20:40.036Z,5.16
2022-12-01T17:23:41.494Z,5.29
2022-12-01T17:26:42.949Z,5.43
2022-12-01T17:29:46.339Z,5.20
2022-12-01T17:32:48.046Z,5.29
2022-12-01T17:35:49.862Z,5.27
2022-12-01T17:38:51.397Z,5.31
2022-12-01T17:41:56.271Z,5.09
2022-12-01T17:44:57.777Z,5.04
2022-12-01T17:47:59.288Z,5.22
2022-12-01T17:51:00.682Z,5.20
2022-12-01T17:54:02.159Z,5.06
2022-12-01T17:57:03.866Z,4.95
2022-12-01T18:00:06.688Z,4.91
2022-12-01T18:03:11.139Z,5.12
2022-12-01T18:06:13.255Z,5.04
2022-12-01T18:09:14.697Z,5.08
2022-12-01T18:12:16.116Z,5.09
2022-12-01T18:15:18.132Z,4.98
2022-12-01T18:18:19.777Z,4.98
2022-12-01T18:21:25.070Z,4.88
2022-12-01T18:24:26.532Z,4.97
2022-12-01T18:27:28.899Z,5.15
2022-12-01T18:30:30.887Z,5.00
2022-12-01T18:33:33.504Z,5.04
2022-12-01T18:36:37.305Z,4.97
2022-12-01T18:39:38.968Z,5.13
2022-12-01T18:42:40.382Z,5.06
2022-12-01T18:45:41.840Z,4.95
2022-12-01T18:48:45.827Z,4.87
2022-12-01T18:51:47.218Z,5.00
2022-12-01T18:54:48.872Z,4.92
2022-12-01T18:57:50.446Z,5.09
2022-12-01T19:00:51.887Z,5.08
2022-12-01T19:03:57.699Z,4.86
2022-12-01T19:06:59.208Z,5.07
2022-12-01T19:10:00.757Z,5.06
2022-12-01T19:13:02.187Z,4.95
2022-12-01T19:16:07.030Z,5.03
2022-12-01T19:19:09.606Z,4.96
2022-12-01T19:22:11.021Z,5.05
2022-12-01T19:25:13.420Z,5.12
2022-12-01T19:28:14.794Z,5.27
2022-12-01T19:31:19.285Z,5.18
2022-12-01T19:34:20.904Z,5.19
2022-12-01T19:37:22.426Z,5.23
2022-12-01T19:40:23.799Z,4.95
2022-12-01T19:43:25.253Z,5.06
2022-12-01T19:46:28.612Z,5.04
2022-12-01T19:49:30.150Z,4.94
2022-12-01T19:52:31.538Z,4.81
2022-12-01T19:55:33.010Z,4.85
2022-12-01T19:58:34.808Z,5.05
2022-12-01T20:01:36.408Z,4.97
2022-12-01T20:04:39.475Z,4.80
2022-12-01T20:07:41.083Z,4.79
2022-12-01T20:10:47.786Z,4.61
2022-12-01T20:13:49.247Z,4.95
2022-12-01T20:16:50.764Z,5.15
2022-12-01T20:19:52.257Z,5.09
2022-12-01T20:22:53.734Z,5.08
2022-12-01T20:25:58.875Z,5.10
2022-12-01T20:29:04.224Z,5.21
2022-12-01T20:32:05.875Z,4.94
2022-12-01T20:35:07.580Z,4.99
2022-12-01T20:38:09.141Z,4.94
2022-12-01T20:41:11.094Z,4.76
2022-12-01T20:44:13.385Z,4.91
2022-12-01T20:47:18.337Z,5.12
2022-12-01T20:50:19.732Z,5.16
2022-12-01T20:53:22.289Z,4.94
2022-12-01T20:56:23.694Z,5.07
2022-12-01T20:59:25.640Z,4.83
2022-12-01T21:02:27.190Z,5.03
2022-12-01T21:05:29.067Z,4.92
2022-12-01T21:08:31.623Z,4.95
2022-12-01T21:11:55.482Z,4.85
2022-12-01T21:15:02.887Z,4.74
2022-12-01T21:18:12.315Z,4.58
2022-12-01T21:21:38.715Z,4.51
2022-12-01T21:24:44.016Z,4.95
2022-12-01T21:27:46.859Z,4.87
2022-12-01T21:30:49.487Z,4.91
2022-12-01T21:33:51.026Z,4.98
2022-12-01T21:36:56.074Z,4.92
2022-12-01T21:39:57.573Z,4.86
2022-12-01T21:43:11.367Z,4.90
2022-12-01T21:46:17.767Z,4.88
2022-12-01T21:49:30.551Z,4.97
2022-12-01T21:52:40.941Z,4.99
2022-12-01T21:55:44.596Z,4.94
2022-12-01T21:58:46.204Z,4.99
2022-12-01T22:01:56.427Z,4.98
2022-12-01T22:04:59.331Z,5.05
2022-12-01T22:08:15.253Z,5.08
2022-12-01T22:11:18.538Z,5.14
2022-12-01T22:14:40.231Z,4.85
2022-12-01T22:17:41.705Z,4.77
2022-12-01T22:20:43.096Z,4.90
2022-12-01T22:23:44.806Z,4.83
2022-12-01T22:26:49.197Z,4.95
2022-12-01T22:30:05.723Z,4.94
2022-12-01T22:33:22.608Z,4.96
2022-12-01T22:36:30.191Z,4.98
2022-12-01T22:39:35.874Z,4.78
2022-12-01T22:42:37.458Z,4.79
2022-12-01T22:45:39.280Z,4.75
2022-12-01T22:48:44.088Z,4.62
2022-12-01T22:51:50.847Z,4.58
2022-12-01T22:54:52.518Z,4.76
2022-12-01T22:57:54.982Z,4.76
2022-12-01T23:01:02.268Z,4.67
2022-12-01T23:04:21.095Z,4.56
2022-12-01T23:07:41.308Z,4.63
2022-12-01T23:10:42.845Z,4.73
2022-12-01T23:13:44.259Z,4.87
2022-12-01T23:16:45.734Z,4.59
2022-12-01T23:19:49.687Z,4.73
2022-12-01T23:22:56.648Z,4.42
2022-12-01T23:25:58.738Z,4.69
2022-12-01T23:29:01.252Z,4.74
2022-12-01T23:32:02.755Z,4.82
2022-12-01T23:35:05.799Z,4.78
2022-12-01T23:38:18.076Z,4.80
2022-12-01T23:41:38.924Z,4.89
2022-12-01T23:44:45.382Z,4.87
2022-12-01T23:47:47.408Z,4.73
2022-12-01T23:50:54.250Z,4.52
2022-12-01T23:54:00.446Z,4.87
2022-12-01T23:57:10.203Z,4.65
